Time;durP1;ratioP1;P1;durP2;ratioP2;P2;SDS_P1;SDS_P2;PMS_P1;PMS_P2;Temp;Humidity;BMP_temperature;BMP_pressure;BME280_temperature;BME280_humidity;BME280_pressure;Samples;Min_cycle;Max_cycle;Signal;HPM_P1;HPM_P2
2022/11/18 00:01:14;;;;;;;19.83;9.27;;;;;;;41.27;35.82;101005.59;5037956;28;20441;-75
2022/11/18 00:03:41;;;;;;;18.50;8.63;;;;;;;41.32;35.55;101000.00;5038058;28;20984;-74
2022/11/18 00:06:11;;;;;;;19.80;8.60;;;;;;;41.50;35.00;101002.66;5037692;28;20480;-75
2022/11/18 00:08:37;;;;;;;12.47;7.70;;;;;;;41.51;34.99;100996.06;5037922;28;20918;-75
2022/11/18 00:11:10;;;;;;;10.73;7.57;;;;;;;41.60;35.29;100992.16;5037729;28;20426;-74
2022/11/18 00:16:22;;;;;;;21.70;10.17;;;;;;;41.50;35.17;100987.09;5055665;28;20398;-75
2022/11/18 00:18:48;;;;;;;15.87;9.13;;;;;;;41.42;35.09;100984.41;5055734;28;20766;-74
2022/11/18 00:21:14;;;;;;;11.80;8.13;;;;;;;41.57;34.84;100981.94;5037612;28;20438;-75
2022/11/18 00:23:40;;;;;;;14.50;8.73;;;;;;;41.39;35.77;100976.91;5037146;28;20478;-74
2022/11/18 00:26:13;;;;;;;25.97;10.07;;;;;;;41.70;34.84;100976.59;5037567;28;20414;-74
2022/11/18 00:28:40;;;;;;;22.07;10.80;;;;;;;41.47;35.30;100976.84;5037181;28;20476;-75
2022/11/18 00:31:12;;;;;;;16.40;8.83;;;;;;;41.72;34.54;100963.41;5037598;28;20434;-74
2022/11/18 00:33:39;;;;;;;26.83;10.10;;;;;;;41.56;35.19;100961.28;5037248;28;20418;-75
2022/11/18 00:36:07;;;;;;;15.90;9.57;;;;;;;41.38;35.69;100970.66;5036952;28;20433;-75
2022/11/18 00:38:33;;;;;;;23.10;7.90;;;;;;;41.06;35.78;100966.59;5037215;28;20496;-74
2022/11/18 00:41:05;;;;;;;17.43;8.07;;;;;;;41.49;34.98;100965.63;5036922;28;20449;-73
2022/11/18 00:43:32;;;;;;;26.20;10.60;;;;;;;41.65;34.90;100963.16;5036969;28;20856;-74
2022/11/18 00:45:58;;;;;;;19.20;9.00;;;;;;;41.80;35.02;100952.50;5037064;28;20415;-74
2022/11/18 00:48:24;;;;;;;21.80;9.43;;;;;;;41.98;34.44;100955.09;5037217;28;20906;-74
2022/11/18 00:50:52;;;;;;;17.50;7.93;;;;;;;42.16;33.71;100948.41;5036921;28;20616;-74
2022/11/18 00:53:20;;;;;;;22.53;9.17;;;;;;;41.92;34.18;100950.97;5036849;28;20498;-74
2022/11/18 00:55:46;;;;;;;21.47;11.13;;;;;;;42.12;33.96;100948.25;5037214;28;20425;-75
2022/11/18 00:58:15;;;;;;;13.57;8.70;;;;;;;42.15;33.98;100946.78;5037154;28;20414;-75
2022/11/18 01:00:42;;;;;;;19.23;8.30;;;;;;;41.69;34.78;100945.03;5036814;28;20480;-74
2022/11/18 01:03:10;;;;;;;21.10;10.17;;;;;;;41.70;34.60;100936.53;5036654;28;20481;-75
2022/11/18 01:05:37;;;;;;;26.40;9.73;;;;;;;41.71;35.14;100938.09;5036534;28;20419;-75
2022/11/18 01:08:04;;;;;;;24.63;12.77;;;;;;;41.84;35.01;100933.56;5055029;28;20486;-75
2022/11/18 01:10:30;;;;;;;14.70;9.87;;;;;;;42.08;34.46;100932.91;5036490;28;20410;-76
2022/11/18 01:15:42;;;;;;;25.87;9.60;;;;;;;41.86;34.54;100928.56;5054658;28;20438;-74
2022/11/18 01:18:08;;;;;;;22.83;9.87;;;;;;;41.84;34.73;100928.91;5036595;28;21007;-74
2022/11/18 01:20:36;;;;;;;12.63;8.83;;;;;;;41.99;34.11;100927.53;5036217;28;20791;-75
2022/11/18 01:23:02;;;;;;;12.83;7.70;;;;;;;42.05;33.82;100919.91;5035927;28;20536;-74
2022/11/18 01:25:29;;;;;;;20.33;9.50;;;;;;;42.17;33.95;100916.47;5036273;28;20418;-74
2022/11/18 01:27:55;;;;;;;22.53;10.73;;;;;;;42.22;33.74;100917.06;5036163;28;20426;-76
2022/11/18 01:30:22;;;;;;;17.53;8.87;;;;;;;42.20;33.55;100911.19;5036321;28;20466;-76
2022/11/18 01:32:48;;;;;;;14.67;7.57;;;;;;;42.12;34.18;100906.56;5036273;28;20810;-74
2022/11/18 01:35:14;;;;;;;12.70;8.30;;;;;;;41.81;34.10;100898.81;5036053;28;20867;-74
2022/11/18 01:37:40;;;;;;;17.47;8.43;;;;;;;41.67;34.59;100898.25;5036680;28;20926;-76
2022/11/18 01:40:07;;;;;;;18.90;9.60;;;;;;;41.66;34.92;100897.44;5035944;28;20430;-76
2022/11/18 01:42:33;;;;;;;18.60;8.67;;;;;;;42.04;34.35;100893.81;5035935;28;20455;-74
2022/11/18 01:45:14;;;;;;;19.80;9.57;;;;;;;41.88;34.64;100890.13;5036012;28;20439;-75
2022/11/18 01:48:07;;;;;;;19.60;8.70;;;;;;;41.74;34.47;100888.47;5035954;28;20509;-74
2022/11/18 01:50:38;;;;;;;15.83;7.90;;;;;;;41.78;34.45;100883.13;5035975;28;20937;-74
2022/11/18 01:53:08;;;;;;;17.10;9.13;;;;;;;41.81;33.87;100877.03;5035594;28;20426;-74
2022/11/18 01:55:40;;;;;;;18.90;8.00;;;;;;;41.86;34.13;100874.09;5035494;28;20438;-74
2022/11/18 01:58:12;;;;;;;19.93;10.23;;;;;;;41.64;34.51;100871.69;5035650;28;20423;-74
2022/11/18 02:00:39;;;;;;;22.30;12.17;;;;;;;41.54;34.80;100864.69;5035583;28;20858;-75
2022/11/18 02:03:05;;;;;;;20.37;10.27;;;;;;;41.82;34.15;100862.28;5035677;28;20462;-76
2022/11/18 02:05:32;;;;;;;19.63;10.23;;;;;;;42.13;34.18;100867.28;5035486;28;20430;-76
2022/11/18 02:08:00;;;;;;;27.33;8.73;;;;;;;42.04;34.25;100872.00;5035649;28;20422;-76
2022/11/18 02:10:26;;;;;;;20.37;9.17;;;;;;;41.93;34.29;100868.09;5035545;28;20427;-76
2022/11/18 02:12:53;;;;;;;16.57;8.47;;;;;;;41.77;34.55;100870.66;5035423;28;20454;-76
2022/11/18 02:15:41;;;;;;;14.47;8.80;;;;;;;41.77;34.31;100860.53;5035579;28;20458;-74
2022/11/18 02:18:33;;;;;;;21.53;10.37;;;;;;;41.65;34.38;100857.72;5034700;28;20430;-74
2022/11/18 02:21:44;;;;;;;13.03;9.77;;;;;;;41.55;34.50;100863.56;5034762;28;20960;-74
2022/11/18 02:24:26;;;;;;;15.63;8.03;;;;;;;41.92;34.00;100856.41;4995670;28;20436;-74
2022/11/18 02:27:08;;;;;;;13.60;7.73;;;;;;;41.75;34.47;100851.91;5015370;28;20454;-75
2022/11/18 02:29:50;;;;;;;19.40;9.60;;;;;;;41.85;33.88;100851.50;5015260;28;20439;-74
2022/11/18 02:32:23;;;;;;;17.00;9.37;;;;;;;41.71;33.99;100856.41;5015277;28;20419;-74
2022/11/18 02:34:57;;;;;;;16.13;8.87;;;;;;;41.71;34.09;100848.22;5015396;28;20454;-75
2022/11/18 02:37:31;;;;;;;19.60;9.03;;;;;;;41.75;34.17;100846.47;5015277;28;20419;-74
2022/11/18 02:40:08;;;;;;;20.07;11.33;;;;;;;41.71;34.35;100831.88;5015278;28;20422;-75
2022/11/18 02:42:37;;;;;;;20.17;11.70;;;;;;;41.64;34.49;100836.28;5033171;28;20512;-75
2022/11/18 02:45:09;;;;;;;22.73;10.03;;;;;;;41.54;34.64;100840.19;5015221;28;20473;-74
2022/11/18 02:47:36;;;;;;;14.80;9.70;;;;;;;41.74;34.38;100831.25;5015057;28;20454;-74
2022/11/18 02:50:07;;;;;;;13.23;9.40;;;;;;;41.65;34.71;100835.16;5033204;28;20399;-75
2022/11/18 02:52:36;;;;;;;22.70;11.53;;;;;;;41.82;34.39;100832.31;5014896;28;20857;-74
2022/11/18 02:55:08;;;;;;;17.10;10.90;;;;;;;41.74;34.40;100838.56;5015015;28;20415;-75
2022/11/18 02:57:35;;;;;;;21.83;9.30;;;;;;;41.60;34.56;100844.31;5014967;28;20419;-74
2022/11/18 03:00:01;;;;;;;22.73;10.73;;;;;;;41.64;34.66;100839.00;5014941;28;20972;-77
2022/11/18 03:02:27;;;;;;;18.70;9.57;;;;;;;41.56;34.72;100837.94;5014741;28;20998;-76
2022/11/18 03:04:58;;;;;;;27.90;10.47;;;;;;;41.46;34.80;100841.06;5015185;28;20453;-77
2022/11/18 03:07:31;;;;;;;22.10;7.97;;;;;;;41.65;34.60;100827.75;5014838;28;20422;-75
2022/11/18 03:09:58;;;;;;;19.43;10.43;;;;;;;41.82;34.18;100833.09;5014846;28;20942;-74
2022/11/18 03:12:43;;;;;;;18.93;9.63;;;;;;;41.82;34.32;100830.38;5014761;28;20435;-74
2022/11/18 03:15:23;;;;;;;14.73;8.17;;;;;;;41.43;35.06;100834.34;5032845;28;20411;-74
2022/11/18 03:18:15;;;;;;;13.00;8.03;;;;;;;41.39;35.09;100829.91;5014704;28;20423;-74
2022/11/18 03:21:01;;;;;;;13.50;9.20;;;;;;;41.53;34.48;100823.06;5032737;28;20407;-74
2022/11/18 03:23:47;;;;;;;12.13;9.13;;;;;;;41.75;34.28;100832.84;5028770;28;20474;-75
2022/11/18 03:26:23;;;;;;;14.60;9.53;;;;;;;41.84;34.06;100836.28;5034357;28;20568;-74
2022/11/18 03:29:16;;;;;;;17.10;9.07;;;;;;;41.78;34.62;100840.34;5036504;28;20411;-75
2022/11/18 03:31:47;;;;;;;14.60;9.07;;;;;;;41.91;34.14;100835.75;5025845;28;20447;-75
2022/11/18 03:34:28;;;;;;;13.67;9.73;;;;;;;42.04;34.20;100842.81;5038371;28;20492;-74
2022/11/18 03:36:59;;;;;;;16.10;11.07;;;;;;;42.01;34.33;100837.25;5038326;28;20989;-74
2022/11/18 03:39:29;;;;;;;15.43;10.97;;;;;;;41.96;34.41;100843.72;5038156;28;20426;-74
2022/11/18 03:42:05;;;;;;;17.13;9.30;;;;;;;41.89;34.66;100842.66;5038256;28;20490;-74
2022/11/18 03:44:36;;;;;;;19.30;10.03;;;;;;;41.73;34.98;100842.44;5038499;28;20937;-74
2022/11/18 03:47:15;;;;;;;16.47;9.80;;;;;;;41.78;34.74;100839.53;5038126;28;20429;-75
2022/11/18 03:49:57;;;;;;;20.83;9.93;;;;;;;41.56;35.11;100837.94;5038148;28;20441;-75
2022/11/18 03:52:29;;;;;;;20.17;10.70;;;;;;;41.87;34.59;100845.72;5038082;28;20414;-74
2022/11/18 03:55:00;;;;;;;22.23;10.30;;;;;;;41.68;35.09;100840.75;5038112;28;20492;-74
2022/11/18 03:57:44;;;;;;;15.33;9.40;;;;;;;41.70;34.99;100838.47;5056226;28;20391;-74
2022/11/18 04:00:13;;;;;;;16.37;9.40;;;;;;;41.79;34.35;100847.38;5037910;28;20437;-76
2022/11/18 04:02:39;;;;;;;15.67;9.23;;;;;;;41.78;34.45;100845.78;5037828;28;20458;-76
2022/11/18 04:05:09;;;;;;;17.17;10.17;;;;;;;41.64;34.58;100845.25;5038161;28;20483;-76
2022/11/18 04:07:38;;;;;;;29.10;10.33;;;;;;;41.63;34.92;100849.09;5055932;28;20490;-74
2022/11/18 04:10:11;;;;;;;24.07;10.83;;;;;;;41.55;34.87;100856.19;5037723;28;20415;-74
2022/11/18 04:12:43;;;;;;;21.23;9.07;;;;;;;41.78;34.50;100853.97;5037694;28;21008;-74
2022/11/18 04:15:09;;;;;;;13.40;9.63;;;;;;;41.70;34.67;100857.53;5037767;28;20418;-75
2022/11/18 04:17:35;;;;;;;18.60;9.37;;;;;;;41.69;34.88;100860.59;5037361;28;20514;-74
2022/11/18 04:20:02;;;;;;;17.90;9.20;;;;;;;41.88;34.30;100854.69;5037632;28;20514;-76
2022/11/18 04:22:27;;;;;;;13.80;8.80;;;;;;;41.71;34.60;100864.56;5037218;28;20507;-76
2022/11/18 04:24:53;;;;;;;24.00;12.33;;;;;;;41.43;34.52;100861.56;5037511;28;20510;-75
2022/11/18 04:27:19;;;;;;;29.23;14.43;;;;;;;41.53;34.75;100866.63;5037508;28;20411;-74
2022/11/18 04:29:45;;;;;;;32.00;17.60;;;;;;;41.20;35.37;100863.78;5055742;28;20490;-74
2022/11/18 04:32:11;;;;;;;33.57;16.37;;;;;;;40.75;36.50;100866.97;5037542;28;20506;-74
2022/11/18 04:34:37;;;;;;;37.53;22.10;;;;;;;41.25;35.61;100871.75;5037370;28;20176;-74
2022/11/18 04:37:03;;;;;;;30.93;19.83;;;;;;;41.20;35.56;100884.75;5037344;28;20549;-74
2022/11/18 04:39:29;;;;;;;36.80;21.80;;;;;;;41.37;35.31;100881.94;5055096;28;20879;-75
2022/11/18 04:41:55;;;;;;;22.80;18.17;;;;;;;41.32;35.50;100880.22;5037276;28;20516;-74
2022/11/18 04:44:26;;;;;;;26.20;19.00;;;;;;;41.42;35.24;100886.41;5054887;28;20429;-75
2022/11/18 04:46:53;;;;;;;27.40;17.97;;;;;;;41.45;35.45;100891.19;5037056;28;20446;-75
2022/11/18 04:49:19;;;;;;;30.20;18.70;;;;;;;41.38;35.59;100886.28;5036962;28;20437;-73
2022/11/18 04:51:46;;;;;;;30.43;21.73;;;;;;;41.53;35.06;100895.78;5055287;28;20787;-74
2022/11/18 04:54:12;;;;;;;33.63;23.80;;;;;;;41.42;35.42;100902.72;5036983;28;20443;-75
2022/11/18 04:56:39;;;;;;;38.93;25.60;;;;;;;41.55;35.45;100901.69;5036888;28;20509;-74
2022/11/18 04:59:06;;;;;;;43.37;29.37;;;;;;;41.60;35.56;100906.94;5036921;28;20509;-74
2022/11/18 05:01:32;;;;;;;32.77;21.63;;;;;;;41.52;35.14;100910.53;5036340;28;20524;-74
2022/11/18 05:04:03;;;;;;;52.37;33.00;;;;;;;41.44;35.34;100912.19;5036851;28;20411;-74
2022/11/18 05:06:30;;;;;;;57.33;41.30;;;;;;;41.49;35.11;100919.34;5036702;28;20545;-74
2022/11/18 05:08:57;;;;;;;93.40;60.10;;;;;;;41.49;35.13;100916.63;5036494;28;20426;-75
2022/11/18 05:14:09;;;;;;;71.27;46.07;;;;;;;41.33;35.38;100921.84;5054898;28;20443;-74
2022/11/18 05:16:34;;;;;;;67.27;41.57;;;;;;;41.29;35.42;100926.31;5036477;28;20443;-75
2022/11/18 05:19:02;;;;;;;50.93;32.60;;;;;;;41.44;35.50;100930.44;5036470;28;20784;-75
2022/11/18 05:21:28;;;;;;;39.00;25.20;;;;;;;41.49;35.01;100927.50;5036403;28;20419;-75
2022/11/18 05:23:54;;;;;;;35.80;22.60;;;;;;;41.46;35.20;100936.34;5036974;28;20553;-73
2022/11/18 05:26:20;;;;;;;35.90;25.03;;;;;;;41.21;35.76;100919.00;5040676;28;20191;-74
2022/11/18 05:28:46;;;;;;;29.23;22.07;;;;;;;41.30;35.26;100927.91;5042124;28;20178;-75
2022/11/18 05:31:14;;;;;;;31.10;26.13;;;;;;;41.03;36.10;100938.13;5034944;28;20965;-75
2022/11/18 05:33:41;;;;;;;39.77;28.87;;;;;;;41.01;36.03;100937.66;5019662;28;20423;-74
2022/11/18 05:36:10;;;;;;;36.17;25.90;;;;;;;40.85;36.13;100936.56;5035833;28;20423;-73
2022/11/18 05:38:36;;;;;;;25.40;21.90;;;;;;;40.71;36.50;100942.19;5025779;28;20411;-74
2022/11/18 05:41:03;;;;;;;34.30;21.40;;;;;;;40.69;36.77;100952.56;5029571;28;20427;-76
2022/11/18 05:43:30;;;;;;;33.90;22.93;;;;;;;40.92;36.35;100955.13;5035508;28;20854;-75
2022/11/18 05:45:56;;;;;;;34.50;25.00;;;;;;;40.88;36.38;100951.41;5031254;28;20450;-75
2022/11/18 05:48:23;;;;;;;40.70;29.73;;;;;;;40.98;36.15;100949.19;5029553;28;20422;-75
2022/11/18 05:50:51;;;;;;;47.20;31.37;;;;;;;41.08;35.81;100959.72;5034335;28;20927;-74
2022/11/18 05:53:20;;;;;;;44.23;32.27;;;;;;;40.87;36.02;100972.38;5032564;28;20403;-78
2022/11/18 05:56:15;;;;;;;44.27;33.50;;;;;;;41.00;36.12;100962.44;5035525;28;20430;-82
2022/11/18 05:58:44;;;;;;;52.73;35.00;;;;;;;40.91;35.78;100967.94;5053954;28;20477;-81
2022/11/18 06:01:20;;;;;;;51.23;32.20;;;;;;;41.05;35.93;100971.22;5036799;28;20858;-81
2022/11/18 06:03:49;;;;;;;35.20;31.77;;;;;;;40.97;36.19;100980.22;5035405;28;20458;-82
2022/11/18 06:06:41;;;;;;;61.93;31.30;;;;;;;40.88;36.29;100971.25;5053114;28;20526;-82
2022/11/18 06:09:09;;;;;;;43.70;31.00;;;;;;;40.95;35.92;100978.97;5032897;28;20410;-80
2022/11/18 06:11:47;;;;;;;42.07;29.77;;;;;;;40.55;36.54;100987.31;5035056;28;20454;-82
2022/11/18 06:14:19;;;;;;;37.40;26.27;;;;;;;40.90;36.50;100990.81;5035944;28;20866;-81
2022/11/18 06:16:51;;;;;;;53.43;28.53;;;;;;;40.91;36.23;100981.53;5035908;28;20422;-82
2022/11/18 06:19:17;;;;;;;48.00;29.57;;;;;;;40.72;36.36;100986.50;5035358;28;20984;-82
2022/11/18 06:21:46;;;;;;;35.87;29.60;;;;;;;40.66;36.64;100993.25;5035236;28;20453;-78
2022/11/18 06:24:13;;;;;;;44.70;29.50;;;;;;;40.97;36.02;101003.94;5031727;28;20464;-76
2022/11/18 06:26:39;;;;;;;49.63;31.83;;;;;;;41.01;35.89;100999.44;5031917;28;20455;-77
2022/11/18 06:29:08;;;;;;;55.70;39.37;;;;;;;41.06;36.09;100996.53;5033503;28;20392;-78
2022/11/18 06:31:34;;;;;;;46.17;32.77;;;;;;;41.07;36.05;100998.94;5031214;28;20869;-78
2022/11/18 06:34:00;;;;;;;56.03;38.03;;;;;;;41.03;35.96;101005.34;5031076;28;20416;-78
2022/11/18 06:36:26;;;;;;;51.27;35.57;;;;;;;40.70;36.78;101005.88;5031265;28;20415;-77
2022/11/18 06:38:52;;;;;;;49.83;37.37;;;;;;;40.90;36.34;101012.59;5031659;28;20526;-77
2022/11/18 06:41:18;;;;;;;61.20;39.20;;;;;;;40.61;36.50;101015.16;5029770;28;20176;-78
2022/11/18 06:43:44;;;;;;;58.30;31.77;;;;;;;40.64;36.39;101004.44;5029695;28;20196;-77
2022/11/18 06:49:01;;;;;;;35.87;25.37;;;;;;;41.21;35.72;101023.22;5031291;28;20434;-77
2022/11/18 06:51:28;;;;;;;43.77;31.93;;;;;;;41.13;35.93;101026.78;5029374;28;20455;-77
2022/11/18 06:53:54;;;;;;;50.60;31.17;;;;;;;41.18;35.74;101032.03;5029534;28;20423;-76
2022/11/18 06:56:21;;;;;;;46.77;34.80;;;;;;;41.11;35.91;101033.66;5032687;28;20786;-76
2022/11/18 06:58:52;;;;;;;48.97;34.30;;;;;;;41.19;35.71;101038.25;5032473;28;20447;-75
2022/11/18 07:01:24;;;;;;;45.63;33.33;;;;;;;41.04;35.83;101034.94;5031445;28;20427;-76
2022/11/18 07:03:51;;;;;;;53.57;36.30;;;;;;;41.10;35.98;101041.03;5030856;28;20451;-75
2022/11/18 07:06:25;;;;;;;50.87;33.83;;;;;;;40.79;36.16;101039.28;5031237;28;20948;-75
2022/11/18 07:08:52;;;;;;;52.73;33.93;;;;;;;40.90;36.15;101053.38;5031161;28;20427;-78
2022/11/18 07:11:25;;;;;;;56.93;31.70;;;;;;;40.61;36.97;101042.34;5031208;28;20468;-77
2022/11/18 07:13:51;;;;;;;50.53;33.20;;;;;;;40.69;36.57;101046.97;5032340;28;20518;-77
2022/11/18 07:16:21;;;;;;;58.57;33.23;;;;;;;40.85;36.60;101044.56;5031136;28;20443;-77
2022/11/18 07:18:48;;;;;;;51.47;37.13;;;;;;;40.74;36.71;101052.25;5031163;28;20451;-77
2022/11/18 07:21:20;;;;;;;52.03;35.70;;;;;;;40.71;36.61;101052.91;5030894;28;20423;-77
2022/11/18 07:23:48;;;;;;;51.30;33.70;;;;;;;41.12;36.15;101051.56;5034576;28;20576;-77
2022/11/18 07:26:15;;;;;;;48.17;26.80;;;;;;;39.93;38.13;101052.75;5034409;28;20414;-77
2022/11/18 07:28:41;;;;;;;36.97;28.93;;;;;;;40.87;36.55;101054.00;5034425;28;20419;-77
2022/11/18 07:31:10;;;;;;;40.50;31.53;;;;;;;41.16;36.09;101056.06;5052395;28;20449;-77
2022/11/18 07:33:36;;;;;;;43.97;27.60;;;;;;;41.46;36.11;101056.94;5034246;28;20874;-77
2022/11/18 07:36:08;;;;;;;31.50;23.30;;;;;;;41.33;35.61;101068.84;5034286;28;20970;-77
2022/11/18 07:38:34;;;;;;;38.80;24.73;;;;;;;41.52;35.54;101068.47;5034315;28;20918;-77
2022/11/18 07:41:12;;;;;;;41.93;25.90;;;;;;;41.32;35.81;101067.22;5034103;28;20869;-78
2022/11/18 07:43:39;;;;;;;35.67;24.37;;;;;;;41.67;35.23;101073.34;5034058;28;20841;-76
2022/11/18 07:46:09;;;;;;;36.20;25.13;;;;;;;41.67;35.63;101073.34;5034245;28;20472;-76
2022/11/18 07:48:35;;;;;;;38.67;26.83;;;;;;;41.82;35.29;101061.16;5034065;28;20423;-76
2022/11/18 07:51:01;;;;;;;38.40;27.73;;;;;;;41.72;35.29;101065.00;5034062;28;20415;-76
2022/11/18 07:53:30;;;;;;;34.17;27.40;;;;;;;41.72;35.10;101078.63;5033738;28;20475;-76
2022/11/18 07:55:56;;;;;;;35.33;29.73;;;;;;;41.46;35.62;101077.94;5034242;28;20272;-75
2022/11/18 07:58:21;;;;;;;46.77;25.47;;;;;;;41.50;35.68;101078.91;5034064;28;20513;-75
2022/11/18 08:00:47;;;;;;;27.53;19.70;;;;;;;41.55;35.56;101087.66;5034289;28;20180;-76
2022/11/18 08:03:13;;;;;;;26.77;20.10;;;;;;;41.32;36.00;101084.38;5052461;28;20280;-77
2022/11/18 08:05:39;;;;;;;33.67;22.70;;;;;;;40.96;36.27;101083.94;5052408;28;20168;-77
2022/11/18 08:08:05;;;;;;;28.93;18.70;;;;;;;41.09;36.77;101093.84;5033745;28;20242;-76
2022/11/18 08:10:31;;;;;;;35.87;17.30;;;;;;;41.59;35.53;101088.63;5034250;28;20666;-77
2022/11/18 08:12:57;;;;;;;21.00;16.90;;;;;;;41.92;35.01;101093.44;5033412;28;20205;-76
2022/11/18 08:15:23;;;;;;;30.67;20.20;;;;;;;42.04;34.88;101104.44;5035518;28;20188;-76
2022/11/18 08:17:49;;;;;;;26.30;16.67;;;;;;;42.04;34.42;101098.19;5056040;28;20764;-74
2022/11/18 08:20:15;;;;;;;21.10;12.80;;;;;;;42.21;34.00;101091.88;5037585;28;20449;-75
2022/11/18 08:22:41;;;;;;;21.27;14.47;;;;;;;42.22;34.12;101105.19;5037373;28;20481;-75
2022/11/18 08:25:08;;;;;;;19.80;12.60;;;;;;;42.38;33.80;101108.94;5037509;28;20422;-74
2022/11/18 08:27:34;;;;;;;26.10;15.43;;;;;;;42.48;33.48;101096.00;5037797;28;20176;-76
2022/11/18 08:30:00;;;;;;;30.43;15.23;;;;;;;42.61;33.35;101111.38;5037569;28;20812;-79
2022/11/18 08:32:26;;;;;;;19.27;11.07;;;;;;;42.52;33.03;101102.41;5037300;28;20418;-79
2022/11/18 08:34:51;;;;;;;19.20;11.97;;;;;;;42.59;33.42;101102.69;5037490;28;20454;-77
2022/11/18 08:37:17;;;;;;;22.83;11.60;;;;;;;42.46;33.93;101109.97;5037510;28;20418;-78
2022/11/18 08:39:43;;;;;;;29.23;12.03;;;;;;;42.48;33.73;101112.38;5037332;28;20184;-79
2022/11/18 08:42:09;;;;;;;21.73;12.30;;;;;;;42.54;33.33;101116.50;5037216;28;20458;-77
2022/11/18 08:44:36;;;;;;;18.70;10.43;;;;;;;42.41;33.43;101115.63;5036980;28;20587;-79
2022/11/18 08:47:02;;;;;;;21.53;11.17;;;;;;;42.47;33.43;101119.75;5037091;28;20496;-78
2022/11/18 08:49:28;;;;;;;25.10;11.80;;;;;;;42.63;33.47;101109.09;5037135;28;20418;-77
2022/11/18 08:51:54;;;;;;;19.03;11.40;;;;;;;42.74;32.94;101123.94;5037322;28;20973;-79
2022/11/18 08:54:20;;;;;;;22.17;12.53;;;;;;;42.61;33.94;101125.00;5037023;28;20427;-78
2022/11/18 08:56:46;;;;;;;21.83;11.83;;;;;;;42.66;33.66;101108.41;5037131;28;20509;-76
2022/11/18 08:59:12;;;;;;;22.60;12.40;;;;;;;42.83;33.44;101124.63;5036980;28;20510;-76
2022/11/18 09:01:40;;;;;;;19.10;11.77;;;;;;;42.65;33.76;101123.97;5037539;28;20450;-77
2022/11/18 09:04:06;;;;;;;19.90;11.37;;;;;;;42.53;33.41;101123.09;5036868;28;20423;-77
2022/11/18 09:06:33;;;;;;;17.83;12.40;;;;;;;42.86;33.33;101124.00;5037439;28;20484;-77
2022/11/18 09:09:00;;;;;;;17.23;11.10;;;;;;;42.88;33.17;101116.25;5036570;28;20524;-76
2022/11/18 09:11:26;;;;;;;18.90;12.10;;;;;;;42.99;33.04;101124.88;5036395;28;20422;-76
2022/11/18 09:13:59;;;;;;;21.67;10.70;;;;;;;42.77;33.18;101131.44;5036892;28;20442;-78
2022/11/18 09:16:29;;;;;;;17.77;10.57;;;;;;;42.77;33.33;101120.53;5054659;28;20545;-79
2022/11/18 09:18:56;;;;;;;19.33;10.90;;;;;;;42.39;33.68;101113.25;5054823;28;20394;-78
2022/11/18 09:21:23;;;;;;;15.07;11.53;;;;;;;42.40;34.20;101114.03;5036471;28;20418;-78
2022/11/18 09:23:49;;;;;;;17.33;10.80;;;;;;;42.56;33.88;101109.59;5036472;28;20509;-79
2022/11/18 09:26:18;;;;;;;27.60;12.40;;;;;;;42.57;33.63;101113.13;5054330;28;20395;-79
2022/11/18 09:28:44;;;;;;;19.63;10.80;;;;;;;42.75;33.27;101111.88;5054536;28;20438;-79
2022/11/18 09:31:12;;;;;;;15.80;9.53;;;;;;;42.47;33.83;101111.56;5036402;28;20414;-78
2022/11/18 09:33:39;;;;;;;23.63;12.07;;;;;;;42.65;33.49;101099.44;5036567;28;20501;-79
2022/11/18 09:36:12;;;;;;;20.60;11.00;;;;;;;42.54;33.97;101091.94;5036239;28;20418;-77
2022/11/18 09:38:38;;;;;;;14.03;9.80;;;;;;;42.68;33.51;101094.47;5036099;28;20419;-76
2022/11/18 09:41:18;;;;;;;18.53;12.07;;;;;;;42.62;33.63;101099.31;5036226;28;20433;-77
2022/11/18 09:44:08;;;;;;;18.43;10.97;;;;;;;42.65;33.63;101101.38;5035895;28;20785;-76
2022/11/18 09:47:07;;;;;;;19.70;9.40;;;;;;;42.68;33.51;101095.25;5036082;28;20445;-77
2022/11/18 09:49:36;;;;;;;17.03;10.33;;;;;;;42.71;33.57;101094.56;5036096;28;20434;-74
2022/11/18 09:52:06;;;;;;;22.63;10.90;;;;;;;42.90;33.22;101094.88;5035911;28;20413;-74
2022/11/18 09:54:34;;;;;;;31.67;16.77;;;;;;;42.57;33.86;101096.75;5035770;28;20442;-74
2022/11/18 09:57:01;;;;;;;18.47;11.43;;;;;;;42.83;33.73;101094.63;5036066;28;20446;-74
2022/11/18 09:59:30;;;;;;;13.10;9.60;;;;;;;42.74;33.67;101091.19;5035752;28;20500;-74
2022/11/18 10:02:28;;;;;;;19.50;11.33;;;;;;;42.89;33.65;101106.94;5035464;28;21012;-76
2022/11/18 10:05:01;;;;;;;29.80;12.20;;;;;;;42.95;33.58;101106.72;5021973;28;20422;-77
2022/11/18 10:08:04;;;;;;;17.97;10.57;;;;;;;42.46;34.01;101114.66;5053829;28;20544;-76
2022/11/18 10:10:42;;;;;;;18.60;11.13;;;;;;;42.51;34.19;101100.81;5034158;28;20418;-76
2022/11/18 10:13:28;;;;;;;18.13;10.63;;;;;;;42.69;33.72;101101.50;5035749;28;20946;-76
2022/11/18 10:16:22;;;;;;;16.00;9.80;;;;;;;42.85;33.67;101099.78;5035255;28;20445;-77
2022/11/18 10:19:17;;;;;;;16.03;10.43;;;;;;;42.84;33.55;101093.47;5035448;28;20442;-76
2022/11/18 10:21:53;;;;;;;15.90;9.83;;;;;;;43.11;33.19;101092.16;5017606;28;20505;-78
2022/11/18 10:24:23;;;;;;;25.20;12.87;;;;;;;42.82;33.32;101090.31;5035027;28;20989;-77
2022/11/18 10:26:58;;;;;;;26.43;10.07;;;;;;;42.77;33.74;101081.53;5035194;28;20860;-74
2022/11/18 10:29:24;;;;;;;22.90;10.80;;;;;;;42.78;33.63;101073.00;5035116;28;20536;-75
2022/11/18 10:32:03;;;;;;;16.93;10.27;;;;;;;42.91;33.51;101082.06;5035299;28;20511;-76
2022/11/18 10:34:30;;;;;;;23.67;11.40;;;;;;;42.63;34.16;101074.44;5035052;28;20865;-75
2022/11/18 10:37:06;;;;;;;16.70;8.53;;;;;;;42.68;34.16;101062.53;5035079;28;20434;-76
2022/11/18 10:39:32;;;;;;;16.27;10.70;;;;;;;42.81;34.00;101071.53;5034452;28;20422;-77
2022/11/18 10:42:05;;;;;;;19.80;10.73;;;;;;;42.86;33.72;101069.41;5034916;28;20433;-75
2022/11/18 10:44:31;;;;;;;21.93;11.83;;;;;;;42.92;33.74;101070.78;5035155;28;20474;-76
2022/11/18 10:47:26;;;;;;;21.97;12.37;;;;;;;42.87;33.67;101065.53;5035033;28;20450;-75
2022/11/18 10:49:54;;;;;;;17.40;11.27;;;;;;;43.02;33.43;101064.13;5030510;28;20184;-75
2022/11/18 10:52:21;;;;;;;21.07;11.10;;;;;;;43.10;33.39;101054.28;5034933;28;20500;-77
2022/11/18 10:55:17;;;;;;;19.03;10.60;;;;;;;42.69;33.61;101036.81;5034790;28;20418;-74
2022/11/18 10:57:43;;;;;;;24.67;10.93;;;;;;;42.98;33.19;101029.66;5018385;28;20795;-73
2022/11/18 11:00:41;;;;;;;21.80;12.63;;;;;;;43.16;32.94;101020.16;5034786;28;20982;-74
2022/11/18 11:03:37;;;;;;;20.00;10.93;;;;;;;43.33;32.77;101009.00;5052653;28;20464;-75
2022/11/18 11:06:27;;;;;;;20.83;11.10;;;;;;;43.37;32.71;100999.00;5052870;28;20395;-75
2022/11/18 11:08:56;;;;;;;21.33;10.77;;;;;;;42.92;33.20;100994.38;5052683;28;20441;-74
2022/11/18 11:11:29;;;;;;;17.77;11.37;;;;;;;43.21;32.76;100994.53;5052820;28;20395;-75
2022/11/18 11:14:19;;;;;;;22.53;11.70;;;;;;;43.30;32.76;100989.78;5034839;28;20473;-76
2022/11/18 11:17:04;;;;;;;20.83;10.63;;;;;;;43.20;33.20;100985.56;5034157;28;20826;-76
2022/11/18 11:19:55;;;;;;;19.33;10.10;;;;;;;43.07;32.96;100982.03;5034517;28;21051;-75
2022/11/18 11:22:21;;;;;;;22.50;11.80;;;;;;;43.11;32.87;100974.75;5033590;28;21630;-75
2022/11/18 11:24:47;;;;;;;18.07;11.50;;;;;;;43.18;32.74;100966.81;5034398;28;20442;-76
2022/11/18 11:27:56;;;;;;;21.83;11.20;;;;;;;43.16;33.02;100969.09;5034382;28;20492;-76
2022/11/18 11:30:23;;;;;;;18.03;11.80;;;;;;;43.31;32.40;100953.94;4999178;28;20413;-76
2022/11/18 11:33:21;;;;;;;12.93;9.00;;;;;;;43.33;32.66;100948.94;5034476;28;20442;-76
2022/11/18 11:36:01;;;;;;;17.43;12.07;;;;;;;43.43;32.48;100953.19;5034287;28;20423;-76
2022/11/18 11:38:53;;;;;;;15.73;9.93;;;;;;;43.17;32.73;100937.13;5034065;28;20422;-76
2022/11/18 11:41:26;;;;;;;20.20;10.63;;;;;;;43.18;32.39;100939.50;5034360;28;20472;-77